Time;durP1;ratioP1;P1;durP2;ratioP2;P2;SDS_P1;SDS_P2;PMS_P1;PMS_P2;Temp;Humidity;BMP_temperature;BMP_pressure;BME280_temperature;BME280_humidity;BME280_pressure;Samples;Min_cycle;Max_cycle;Signal;HPM_P1;HPM_P2
2022/11/04 00:00:07;;;;;;;36.97;15.02;;;;;;;;;;5044828;28;20163;-79
2022/11/04 00:02:33;;;;;;;29.02;14.70;;;;;;;;;;5047168;28;20057;-80
2022/11/04 00:05:00;;;;;;;32.13;14.35;;;;;;;;;;5046873;28;20057;-81
2022/11/04 00:10:11;;;;;;;33.30;14.57;;;;;;;;;;5040215;28;20066;-79
2022/11/04 00:12:38;;;;;;;32.80;15.30;;;;;;;;;;5039049;28;20053;-80
2022/11/04 00:17:50;;;;;;;22.05;10.75;;;;;;;;;;5017140;28;20077;-79
2022/11/04 00:28:43;;;;;;;36.78;15.38;;;;;;;;;;5033537;28;20041;-79
2022/11/04 00:33:56;;;;;;;33.43;12.80;;;;;;;;;;5028698;28;20058;-80
2022/11/04 00:36:23;;;;;;;27.95;13.77;;;;;;;;;;5023921;28;20046;-79
2022/11/04 00:38:49;;;;;;;31.98;14.25;;;;;;;;;;5022803;28;20054;-75
2022/11/04 00:41:25;;;;;;;28.80;14.23;;;;;;;;;;5027287;28;20041;-80
2022/11/04 00:43:52;;;;;;;28.73;13.52;;;;;;;;;;5026400;28;20080;-79
2022/11/04 00:46:19;;;;;;;27.63;13.07;;;;;;;;;;5026030;28;20118;-78
2022/11/04 00:48:45;;;;;;;32.25;13.63;;;;;;;;;;5022173;28;20164;-79
2022/11/04 00:51:12;;;;;;;30.52;13.52;;;;;;;;;;5023009;28;20108;-81
2022/11/04 00:53:43;;;;;;;30.10;13.30;;;;;;;;;;5024498;28;20458;-80
2022/11/04 00:56:09;;;;;;;29.20;13.65;;;;;;;;;;5024363;28;20046;-80
2022/11/04 00:58:36;;;;;;;24.35;12.52;;;;;;;;;;5025400;28;20042;-78
2022/11/04 01:01:16;;;;;;;27.60;12.82;;;;;;;;;;5025138;28;20134;-79
2022/11/04 01:03:43;;;;;;;29.33;13.02;;;;;;;;;;5020420;28;20119;-79
2022/11/04 01:06:10;;;;;;;26.73;13.15;;;;;;;;;;5025445;28;20102;-79
2022/11/04 01:08:36;;;;;;;28.23;12.88;;;;;;;;;;5023361;28;20054;-80
2022/11/04 01:11:03;;;;;;;30.15;13.45;;;;;;;;;;5023433;28;20049;-79
2022/11/04 01:13:30;;;;;;;29.80;12.98;;;;;;;;;;5021932;28;20046;-78
2022/11/04 01:15:57;;;;;;;27.20;12.57;;;;;;;;;;5023078;28;20042;-80
2022/11/04 01:18:23;;;;;;;29.60;12.77;;;;;;;;;;5023523;28;20045;-78
2022/11/04 01:20:50;;;;;;;26.48;12.38;;;;;;;;;;5020586;28;20105;-80
2022/11/04 01:23:16;;;;;;;26.77;11.63;;;;;;;;;;5022525;28;20050;-80
2022/11/04 01:25:42;;;;;;;27.00;12.30;;;;;;;;;;5023650;28;20105;-80
2022/11/04 01:28:09;;;;;;;27.20;11.93;;;;;;;;;;5024000;28;20078;-80
2022/11/04 01:30:39;;;;;;;23.45;11.60;;;;;;;;;;5022942;28;20072;-80
2022/11/04 01:33:05;;;;;;;29.23;13.07;;;;;;;;;;5023672;28;20056;-80
2022/11/04 01:35:32;;;;;;;26.65;12.20;;;;;;;;;;5002753;28;20441;-80
2022/11/04 01:37:58;;;;;;;23.98;10.98;;;;;;;;;;5023999;28;20050;-81
2022/11/04 01:40:24;;;;;;;21.60;10.65;;;;;;;;;;5024530;28;20042;-80
2022/11/04 01:42:51;;;;;;;23.15;10.98;;;;;;;;;;5026018;28;20049;-81
2022/11/04 01:45:19;;;;;;;18.27;8.82;;;;;;;;;;5026562;28;20129;-80
2022/11/04 01:47:48;;;;;;;20.67;8.48;;;;;;;;;;5010302;28;20050;-80
2022/11/04 01:50:23;;;;;;;19.77;9.13;;;;;;;;;;5021740;28;20054;-80
2022/11/04 01:52:52;;;;;;;16.77;8.32;;;;;;;;;;5024487;28;20436;-80
2022/11/04 01:55:22;;;;;;;16.15;7.90;;;;;;;;;;5024920;28;20133;-80
2022/11/04 01:57:49;;;;;;;14.57;8.05;;;;;;;;;;5027317;28;20121;-80
2022/11/04 02:00:15;;;;;;;19.20;7.95;;;;;;;;;;5023944;28;20558;-79
2022/11/04 02:02:50;;;;;;;16.38;7.93;;;;;;;;;;5024958;28;20066;-79
2022/11/04 02:05:17;;;;;;;16.25;7.32;;;;;;;;;;5018022;28;20144;-79
2022/11/04 02:07:48;;;;;;;17.25;7.85;;;;;;;;;;5026765;28;20100;-80
2022/11/04 02:10:15;;;;;;;16.30;7.80;;;;;;;;;;5023033;28;20051;-79
2022/11/04 02:12:50;;;;;;;14.85;7.18;;;;;;;;;;5024383;28;20076;-81
2022/11/04 02:15:29;;;;;;;17.83;7.82;;;;;;;;;;5027675;28;20077;-81
2022/11/04 02:18:04;;;;;;;17.00;7.70;;;;;;;;;;5027565;28;20060;-80
2022/11/04 02:20:40;;;;;;;16.90;7.30;;;;;;;;;;5022854;28;20442;-80
2022/11/04 02:23:06;;;;;;;;;;;;;;;;;;5026839;28;20054;-81
2022/11/04 02:25:39;;;;;;;20.35;8.25;;;;;;;;;;5027649;28;19925;-81
2022/11/04 02:28:24;;;;;;;21.33;8.93;;;;;;;;;;5029695;28;20134;-82
2022/11/04 02:30:53;;;;;;;16.67;8.48;;;;;;;;;;5012576;28;20109;-81
2022/11/04 02:33:20;;;;;;;16.70;8.40;;;;;;;;;;5010715;28;20053;-81
2022/11/04 02:36:05;;;;;;;14.90;8.23;;;;;;;;;;5027011;28;20141;-82
2022/11/04 02:38:41;;;;;;;16.95;8.85;;;;;;;;;;5027053;28;20593;-81
2022/11/04 02:41:20;;;;;;;19.60;9.27;;;;;;;;;;5028005;28;20096;-82
2022/11/04 02:44:05;;;;;;;17.95;9.63;;;;;;;;;;5025722;28;20071;-82
2022/11/04 02:46:43;;;;;;;21.50;9.75;;;;;;;;;;5009866;28;20056;-82
2022/11/04 02:49:14;;;;;;;18.15;8.93;;;;;;;;;;5027149;28;20121;-82
2022/11/04 02:51:53;;;;;;;25.42;9.30;;;;;;;;;;5027405;28;20096;-82
2022/11/04 02:54:32;;;;;;;23.00;9.55;;;;;;;;;;5027776;28;20078;-81
2022/11/04 02:57:00;;;;;;;26.33;9.75;;;;;;;;;;5027735;28;20061;-81
2022/11/04 02:59:34;;;;;;;15.93;9.00;;;;;;;;;;5029652;28;20073;-81
2022/11/04 03:02:04;;;;;;;17.75;8.65;;;;;;;;;;5036707;28;20042;-80
2022/11/04 03:04:33;;;;;;;18.77;9.48;;;;;;;;;;5036911;28;20069;-80
2022/11/04 03:07:00;;;;;;;20.17;8.50;;;;;;;;;;5038443;28;20040;-80
2022/11/04 03:09:27;;;;;;;20.20;9.88;;;;;;;;;;5039819;28;20056;-80
2022/11/04 03:12:01;;;;;;;20.30;8.93;;;;;;;;;;5037577;28;20064;-82
2022/11/04 03:14:34;;;;;;;20.65;8.93;;;;;;;;;;5035157;28;20062;-82
2022/11/04 03:17:03;;;;;;;17.35;8.70;;;;;;;;;;5038724;28;20097;-82
2022/11/04 03:19:35;;;;;;;17.23;8.60;;;;;;;;;;5037653;28;20085;-81
2022/11/04 03:22:21;;;;;;;23.70;9.75;;;;;;;;;;5020820;28;20131;-80
2022/11/04 03:24:48;;;;;;;;;;;;;;;;;;5037644;28;20066;-81
2022/11/04 03:27:17;;;;;;;23.58;9.32;;;;;;;;;;5036496;28;19910;-82
2022/11/04 03:29:50;;;;;;;22.42;10.00;;;;;;;;;;5036620;28;20034;-81
2022/11/04 03:32:25;;;;;;;27.77;10.75;;;;;;;;;;5035257;28;20053;-81
2022/11/04 03:34:52;;;;;;;21.65;9.90;;;;;;;;;;5029623;28;20046;-80
2022/11/04 03:37:18;;;;;;;21.13;9.80;;;;;;;;;;5019814;28;20052;-80
2022/11/04 03:39:45;;;;;;;21.60;9.93;;;;;;;;;;5021217;28;20137;-81
2022/11/04 03:42:21;;;;;;;19.10;9.52;;;;;;;;;;5030742;28;20050;-81
2022/11/04 03:44:49;;;;;;;20.30;9.57;;;;;;;;;;5012612;28;20055;-78
2022/11/04 03:47:17;;;;;;;18.85;9.15;;;;;;;;;;5021564;28;20053;-79
2022/11/04 03:49:44;;;;;;;16.02;9.07;;;;;;;;;;5013689;28;20061;-77
2022/11/04 03:52:11;;;;;;;25.13;9.60;;;;;;;;;;5013494;28;20141;-80
2022/11/04 03:54:38;;;;;;;22.60;9.43;;;;;;;;;;5013610;28;20136;-80
2022/11/04 03:57:13;;;;;;;21.23;9.73;;;;;;;;;;5015379;28;20046;-81
2022/11/04 03:59:40;;;;;;;;;;;;;;;;;;4997973;28;20056;-78
2022/11/04 04:02:06;;;;;;;;;;;;;;;;;;5015988;28;20012;-80
2022/11/04 04:04:35;;;;;;;18.50;9.07;;;;;;;;;;5012552;28;19925;-81
2022/11/04 04:07:10;;;;;;;17.25;9.07;;;;;;;;;;5022959;28;20109;-80
2022/11/04 04:09:38;;;;;;;18.73;9.20;;;;;;;;;;5019140;28;20060;-81
2022/11/04 04:12:08;;;;;;;25.77;9.35;;;;;;;;;;5000703;28;20177;-82
2022/11/04 04:14:40;;;;;;;23.85;10.00;;;;;;;;;;5026583;28;20110;-81
2022/11/04 04:17:12;;;;;;;22.23;10.20;;;;;;;;;;5028877;28;20049;-82
2022/11/04 04:19:41;;;;;;;22.80;10.45;;;;;;;;;;5024319;28;20061;-80
2022/11/04 04:22:16;;;;;;;23.02;11.18;;;;;;;;;;5025930;28;20046;-83
2022/11/04 04:27:32;;;;;;;27.45;11.10;;;;;;;;;;5026493;28;19922;-80
2022/11/04 04:30:00;;;;;;;26.23;12.38;;;;;;;;;;5027153;28;20069;-83
2022/11/04 04:32:28;;;;;;;29.35;12.88;;;;;;;;;;5020978;28;20133;-79
2022/11/04 04:35:40;;;;;;;28.15;12.70;;;;;;;;;;5020442;28;20046;-81
2022/11/04 04:37:42;;;;;;;26.73;12.77;;;;;;;;;;5023325;28;20054;-81
2022/11/04 04:45:41;;;;;;;27.80;13.50;;;;;;;;;;5026025;28;20509;-82
2022/11/04 04:48:10;;;;;;;26.00;13.50;;;;;;;;;;5027223;28;20468;-81
2022/11/04 04:50:40;;;;;;;31.33;13.95;;;;;;;;;;5018310;28;20455;-77
2022/11/04 04:53:21;;;;;;;32.42;14.48;;;;;;;;;;5005831;28;20101;-80
2022/11/04 04:55:53;;;;;;;24.13;12.20;;;;;;;;;;5023951;28;20054;-79
2022/11/04 04:58:20;;;;;;;30.48;13.20;;;;;;;;;;5008313;28;20049;-79
2022/11/04 05:00:47;;;;;;;29.33;13.25;;;;;;;;;;5024955;28;20049;-81
2022/11/04 05:03:13;;;;;;;27.60;12.55;;;;;;;;;;5023879;28;20060;-82
2022/11/04 05:05:40;;;;;;;27.00;12.65;;;;;;;;;;5002699;28;20114;-80
2022/11/04 05:08:07;;;;;;;24.42;12.82;;;;;;;;;;5006192;28;20156;-82
2022/11/04 05:10:34;;;;;;;30.38;13.45;;;;;;;;;;5025119;28;20095;-79
2022/11/04 05:15:45;;;;;;;27.77;12.23;;;;;;;;;;5026226;28;20117;-81
2022/11/04 05:18:12;;;;;;;27.20;12.25;;;;;;;;;;5007115;28;20151;-81
2022/11/04 05:20:39;;;;;;;30.73;12.77;;;;;;;;;;5022347;28;20075;-82
2022/11/04 05:23:06;;;;;;;27.35;12.50;;;;;;;;;;5024199;28;20084;-83
2022/11/04 05:25:32;;;;;;;25.02;11.82;;;;;;;;;;5025326;28;20050;-82
2022/11/04 05:28:05;;;;;;;23.90;11.85;;;;;;;;;;5024421;28;20486;-83
2022/11/04 05:30:35;;;;;;;28.45;11.88;;;;;;;;;;5024198;28;20080;-82
2022/11/04 05:33:01;;;;;;;31.40;12.57;;;;;;;;;;5023979;28;20050;-82
2022/11/04 05:35:31;;;;;;;30.52;12.18;;;;;;;;;;5019038;28;20076;-80
2022/11/04 05:37:57;;;;;;;30.20;12.90;;;;;;;;;;5009911;28;20041;-77
2022/11/04 05:40:23;;;;;;;26.67;12.38;;;;;;;;;;4992816;28;20050;-78
2022/11/04 05:42:50;;;;;;;26.33;12.13;;;;;;;;;;5010284;28;20052;-80
2022/11/04 05:45:16;;;;;;;29.35;12.20;;;;;;;;;;5010359;28;20057;-80
2022/11/04 05:47:43;;;;;;;32.78;13.38;;;;;;;;;;5010799;28;20054;-79
2022/11/04 05:50:10;;;;;;;31.50;12.93;;;;;;;;;;4989126;28;20435;-79
2022/11/04 05:52:36;;;;;;;28.35;12.68;;;;;;;;;;4992485;28;20061;-79
2022/11/04 05:55:03;;;;;;;27.35;12.68;;;;;;;;;;5011953;28;20046;-84
2022/11/04 05:57:29;;;;;;;27.10;12.13;;;;;;;;;;5025726;28;20053;-82
2022/11/04 05:59:55;;;;;;;25.95;12.48;;;;;;;;;;5008276;28;20053;-82
2022/11/04 06:02:22;;;;;;;28.15;12.77;;;;;;;;;;5024967;28;20050;-82
2022/11/04 06:04:49;;;;;;;28.67;12.40;;;;;;;;;;5022677;28;20054;-82
2022/11/04 06:07:15;;;;;;;26.65;13.02;;;;;;;;;;5027588;28;20290;-82
2022/11/04 06:09:41;;;;;;;28.80;12.52;;;;;;;;;;5026357;28;20084;-81
2022/11/04 06:12:09;;;;;;;27.23;12.30;;;;;;;;;;5019293;28;20540;-80
2022/11/04 06:14:36;;;;;;;30.33;12.80;;;;;;;;;;5022813;28;20118;-81
2022/11/04 06:17:03;;;;;;;28.85;13.02;;;;;;;;;;5012266;28;20079;-80
2022/11/04 06:19:29;;;;;;;25.95;12.80;;;;;;;;;;5013211;28;20080;-79
2022/11/04 06:21:56;;;;;;;27.88;12.45;;;;;;;;;;5017127;28;20133;-79
2022/11/04 06:24:22;;;;;;;30.13;12.98;;;;;;;;;;5020644;28;20054;-80
2022/11/04 06:26:49;;;;;;;24.85;12.82;;;;;;;;;;5020715;28;20081;-81
2022/11/04 06:29:15;;;;;;;29.27;12.90;;;;;;;;;;5029878;28;20086;-80
2022/11/04 06:31:42;;;;;;;26.15;12.70;;;;;;;;;;5021840;28;20057;-81
2022/11/04 06:34:08;;;;;;;26.13;11.55;;;;;;;;;;5035375;28;20445;-81
2022/11/04 06:36:35;;;;;;;28.20;13.95;;;;;;;;;;5024564;28;20150;-81
2022/11/04 06:39:02;;;;;;;24.55;11.95;;;;;;;;;;5025713;28;20065;-81
2022/11/04 06:41:30;;;;;;;31.83;13.15;;;;;;;;;;5016984;28;20056;-80
2022/11/04 06:43:56;;;;;;;30.73;12.75;;;;;;;;;;5011556;28;20125;-81
2022/11/04 06:46:24;;;;;;;27.85;12.52;;;;;;;;;;5010269;28;20110;-80
2022/11/04 06:48:51;;;;;;;26.00;12.25;;;;;;;;;;4990725;28;20062;-79
2022/11/04 06:51:18;;;;;;;33.28;12.93;;;;;;;;;;5010363;28;20309;-81
2022/11/04 06:53:44;;;;;;;30.83;12.60;;;;;;;;;;5011134;28;20084;-79
2022/11/04 06:56:11;;;;;;;34.35;13.23;;;;;;;;;;5011143;28;20053;-80
2022/11/04 06:58:37;;;;;;;27.05;12.95;;;;;;;;;;5013850;28;20050;-79
2022/11/04 07:01:04;;;;;;;22.65;12.25;;;;;;;;;;5002452;28;20201;-81
2022/11/04 07:03:40;;;;;;;27.23;12.15;;;;;;;;;;5015619;28;20140;-80
2022/11/04 07:06:07;;;;;;;27.38;11.77;;;;;;;;;;5016885;28;20443;-78
2022/11/04 07:08:33;;;;;;;26.13;11.82;;;;;;;;;;5018576;28;20053;-80
2022/11/04 07:11:00;;;;;;;23.35;11.48;;;;;;;;;;5021712;28;20042;-80
2022/11/04 07:13:26;;;;;;;19.73;10.48;;;;;;;;;;5021075;28;20045;-80
2022/11/04 07:15:53;;;;;;;22.02;10.50;;;;;;;;;;5020506;28;20046;-80
2022/11/04 07:18:19;;;;;;;21.13;10.23;;;;;;;;;;5019891;28;20049;-79
2022/11/04 07:20:46;;;;;;;22.35;10.13;;;;;;;;;;4999610;28;20060;-79
2022/11/04 07:23:12;;;;;;;19.50;9.98;;;;;;;;;;5016833;28;20060;-79
2022/11/04 07:25:39;;;;;;;21.88;10.75;;;;;;;;;;5018527;28;20061;-79
2022/11/04 07:28:05;;;;;;;20.40;9.90;;;;;;;;;;5017905;28;20054;-80
2022/11/04 07:30:32;;;;;;;24.02;11.13;;;;;;;;;;5019688;28;20060;-79
2022/11/04 07:32:58;;;;;;;24.08;11.25;;;;;;;;;;5030857;28;20056;-79
2022/11/04 07:35:24;;;;;;;24.38;10.88;;;;;;;;;;5037572;28;20050;-79
2022/11/04 07:37:51;;;;;;;21.60;10.40;;;;;;;;;;5035147;28;20054;-79
2022/11/04 07:40:17;;;;;;;21.83;10.50;;;;;;;;;;5005098;28;20136;-80
2022/11/04 07:42:44;;;;;;;20.80;10.80;;;;;;;;;;5021423;28;20052;-79
2022/11/04 07:45:10;;;;;;;21.25;10.20;;;;;;;;;;5022528;28;20046;-80
2022/11/04 07:47:36;;;;;;;16.27;9.50;;;;;;;;;;5005852;28;20068;-79
2022/11/04 07:50:03;;;;;;;17.35;9.70;;;;;;;;;;5017468;28;20104;-80
2022/11/04 07:52:36;;;;;;;23.10;10.15;;;;;;;;;;5021255;28;20049;-79
2022/11/04 07:55:02;;;;;;;17.80;9.85;;;;;;;;;;5022699;28;20053;-78
2022/11/04 07:57:28;;;;;;;19.08;9.57;;;;;;;;;;5022705;28;20045;-80
2022/11/04 07:59:55;;;;;;;16.73;9.88;;;;;;;;;;5021258;28;20064;-80
2022/11/04 08:02:21;;;;;;;18.02;9.57;;;;;;;;;;5021927;28;20046;-80
2022/11/04 08:04:53;;;;;;;21.38;10.23;;;;;;;;;;5020456;28;20088;-81
2022/11/04 08:07:20;;;;;;;17.85;9.27;;;;;;;;;;5024407;28;20053;-81
2022/11/04 08:09:46;;;;;;;16.58;8.50;;;;;;;;;;5023822;28;20113;-81
2022/11/04 08:12:13;;;;;;;17.30;8.50;;;;;;;;;;5021913;28;20057;-81
2022/11/04 08:14:39;;;;;;;17.75;8.77;;;;;;;;;;5019179;28;20060;-81
2022/11/04 08:17:06;;;;;;;18.95;8.90;;;;;;;;;;5020406;28;20046;-79
2022/11/04 08:19:32;;;;;;;14.27;8.75;;;;;;;;;;5016507;28;20050;-81
2022/11/04 08:21:58;;;;;;;14.85;8.10;;;;;;;;;;5019199;28;20054;-79
2022/11/04 08:24:25;;;;;;;14.85;8.68;;;;;;;;;;5020698;28;20109;-81
2022/11/04 08:26:52;;;;;;;14.13;7.85;;;;;;;;;;5021408;28;20053;-81
2022/11/04 08:29:18;;;;;;;14.45;7.55;;;;;;;;;;5022324;28;20054;-82
2022/11/04 08:31:45;;;;;;;16.30;7.47;;;;;;;;;;5025239;28;20080;-80
2022/11/04 08:34:13;;;;;;;13.93;6.70;;;;;;;;;;5005531;28;20153;-81
2022/11/04 08:36:39;;;;;;;10.32;6.28;;;;;;;;;;5028077;28;20046;-80
2022/11/04 08:39:07;;;;;;;12.55;6.80;;;;;;;;;;5028541;28;20046;-82
2022/11/04 08:41:39;;;;;;;9.02;5.07;;;;;;;;;;5029062;28;20049;-81
2022/11/04 08:44:06;;;;;;;10.00;5.40;;;;;;;;;;5009693;28;20069;-81
2022/11/04 08:46:34;;;;;;;10.00;5.45;;;;;;;;;;5029232;28;20034;-81
2022/11/04 08:49:01;;;;;;;10.93;4.95;;;;;;;;;;5029359;28;20096;-81
2022/11/04 08:51:37;;;;;;;10.07;5.43;;;;;;;;;;5030725;28;20053;-81
2022/11/04 08:54:04;;;;;;;7.97;4.53;;;;;;;;;;5022449;28;20049;-78
2022/11/04 08:56:31;;;;;;;9.80;4.75;;;;;;;;;;5023328;28;20046;-82
2022/11/04 08:58:58;;;;;;;9.68;5.47;;;;;;;;;;5026196;28;20105;-81
2022/11/04 09:01:25;;;;;;;13.93;5.60;;;;;;;;;;5025686;28;20163;-81
2022/11/04 09:03:59;;;;;;;14.02;5.10;;;;;;;;;;5024423;28;20074;-80
2022/11/04 09:06:28;;;;;;;9.13;5.15;;;;;;;;;;5027084;28;20183;-79
2022/11/04 09:08:56;;;;;;;9.48;5.45;;;;;;;;;;5028629;28;20064;-81
2022/11/04 09:11:25;;;;;;;10.65;5.53;;;;;;;;;;5007755;28;20072;-80
2022/11/04 09:13:52;;;;;;;10.65;5.68;;;;;;;;;;5025614;28;20056;-80
2022/11/04 09:16:21;;;;;;;11.90;5.07;;;;;;;;;;5009512;28;20074;-81
2022/11/04 09:18:47;;;;;;;11.27;5.22;;;;;;;;;;5003532;28;20074;-81
2022/11/04 09:21:14;;;;;;;13.88;5.60;;;;;;;;;;5023708;28;20048;-82
2022/11/04 09:23:40;;;;;;;11.18;5.85;;;;;;;;;;5026774;28;20057;-82
2022/11/04 09:26:11;;;;;;;11.73;5.32;;;;;;;;;;5025847;28;20141;-81
2022/11/04 09:28:39;;;;;;;10.02;5.32;;;;;;;;;;5009336;28;20057;-81
2022/11/04 09:31:13;;;;;;;9.45;4.88;;;;;;;;;;5026821;28;20076;-82
2022/11/04 09:33:40;;;;;;;9.32;4.93;;;;;;;;;;5027810;28;20062;-80
2022/11/04 09:36:07;;;;;;;10.13;4.80;;;;;;;;;;5014104;28;20038;-81
2022/11/04 09:38:34;;;;;;;7.90;4.45;;;;;;;;;;5029508;28;20042;-82
2022/11/04 09:41:07;;;;;;;7.90;4.45;;;;;;;;;;5027842;28;20086;-82
2022/11/04 09:43:45;;;;;;;7.03;4.05;;;;;;;;;;5025708;28;20082;-81
2022/11/04 09:46:12;;;;;;;9.68;4.07;;;;;;;;;;5025692;28;20084;-81
2022/11/04 09:48:44;;;;;;;9.18;4.30;;;;;;;;;;5026857;28;20085;-81
2022/11/04 09:51:11;;;;;;;10.45;4.40;;;;;;;;;;5025820;28;20240;-80
2022/11/04 09:53:59;;;;;;;7.93;4.20;;;;;;;;;;5017789;28;20045;-81
2022/11/04 09:56:32;;;;;;;6.85;4.30;;;;;;;;;;5035874;28;20050;-80
2022/11/04 09:58:58;;;;;;;8.13;4.30;;;;;;;;;;5010758;28;20058;-80
2022/11/04 10:01:36;;;;;;;6.78;3.97;;;;;;;;;;5024604;28;20107;-82
2022/11/04 10:04:02;;;;;;;7.57;4.15;;;;;;;;;;5025503;28;20058;-81
2022/11/04 10:06:47;;;;;;;6.53;3.92;;;;;;;;;;5008545;28;20129;-81
2022/11/04 10:09:14;;;;;;;10.65;4.35;;;;;;;;;;5027398;28;20054;-80
2022/11/04 10:11:54;;;;;;;8.25;4.65;;;;;;;;;;5027957;28;20117;-79
2022/11/04 10:14:21;;;;;;;7.15;4.65;;;;;;;;;;5026692;28;20045;-81
2022/11/04 10:16:56;;;;;;;7.72;4.32;;;;;;;;;;5023968;28;20066;-81
2022/11/04 10:19:23;;;;;;;;;;;;;;;;;;5023517;28;20106;-81
2022/11/04 10:21:55;;;;;;;7.45;4.35;;;;;;;;;;5023932;28;19952;-81
2022/11/04 10:24:28;;;;;;;6.88;4.07;;;;;;;;;;5005888;28;20598;-80
2022/11/04 10:27:09;;;;;;;7.07;3.70;;;;;;;;;;5007220;28;20088;-81
2022/11/04 10:29:37;;;;;;;11.07;4.18;;;;;;;;;;5020643;28;20490;-80
2022/11/04 10:32:13;;;;;;;6.05;3.78;;;;;;;;;;5007704;28;20065;-81
2022/11/04 10:34:56;;;;;;;8.52;4.13;;;;;;;;;;5022959;28;20046;-81
2022/11/04 10:37:24;;;;;;;8.07;3.78;;;;;;;;;;5026908;28;20092;-82
2022/11/04 10:39:51;;;;;;;7.50;4.40;;;;;;;;;;5026562;28;20076;-80
2022/11/04 10:42:20;;;;;;;9.27;4.40;;;;;;;;;;5026152;28;20118;-80
2022/11/04 10:44:48;;;;;;;8.48;4.47;;;;;;;;;;5026046;28;20402;-81
2022/11/04 10:47:14;;;;;;;9.07;4.57;;;;;;;;;;5029980;28;20141;-81
2022/11/04 10:49:47;;;;;;;6.95;4.68;;;;;;;;;;5026914;28;20085;-81
2022/11/04 10:52:35;;;;;;;8.57;4.43;;;;;;;;;;5027133;28;20148;-82
2022/11/04 10:55:01;;;;;;;9.38;4.57;;;;;;;;;;5010415;28;20046;-80
2022/11/04 10:57:28;;;;;;;6.63;4.20;;;;;;;;;;5027540;28;20065;-80
2022/11/04 10:59:54;;;;;;;8.52;4.15;;;;;;;;;;5021595;28;20048;-81
2022/11/04 11:02:36;;;;;;;9.32;4.18;;;;;;;;;;5024517;28;20073;-81
2022/11/04 11:05:13;;;;;;;7.53;4.40;;;;;;;;;;5031460;28;20050;-78
2022/11/04 11:07:39;;;;;;;6.35;3.80;;;;;;;;;;5030820;28;20058;-79
2022/11/04 11:10:15;;;;;;;7.78;3.65;;;;;;;;;;5024398;28;20080;-81
2022/11/04 11:12:49;;;;;;;7.53;4.03;;;;;;;;;;5017718;28;20077;-81
2022/11/04 11:15:28;;;;;;;8.77;3.88;;;;;;;;;;5034077;28;20046;-80
2022/11/04 11:17:59;;;;;;;5.43;3.22;;;;;;;;;;5043022;28;20041;-81
2022/11/04 11:20:26;;;;;;;8.23;3.40;;;;;;;;;;5016507;28;20065;-80
2022/11/04 11:22:53;;;;;;;9.27;3.55;;;;;;;;;;5027995;28;20048;-81
2022/11/04 11:25:20;;;;;;;7.20;3.50;;;;;;;;;;5010778;28;20050;-81
2022/11/04 11:27:48;;;;;;;6.97;3.28;;;;;;;;;;5005952;28;20057;-80
2022/11/04 11:30:40;;;;;;;7.38;3.40;;;;;;;;;;5021955;28;20156;-80
2022/11/04 11:33:16;;;;;;;5.40;2.70;;;;;;;;;;5009730;28;20109;-80
2022/11/04 11:35:53;;;;;;;2.88;1.58;;;;;;;;;;5019882;28;20148;-79
2022/11/04 11:38:24;;;;;;;4.28;2.30;;;;;;;;;;5020702;28;20046;-83
2022/11/04 11:40:53;;;;;;;5.30;2.00;;;;;;;;;;5022587;28;20056;-82
2022/11/04 11:43:42;;;;;;;4.57;1.90;;;;;;;;;;5025351;28;20139;-81
2022/11/04 11:46:10;;;;;;;5.53;2.30;;;;;;;;;;5005116;28;20072;-82
2022/11/04 11:48:41;;;;;;;5.38;2.13;;;;;;;;;;5023161;28;20058;-82
2022/11/04 11:51:12;;;;;;;5.53;2.20;;;;;;;;;;5001237;28;20046;-81
2022/11/04 11:53:44;;;;;;;6.47;2.20;;;;;;;;;;5021567;28;20054;-82
2022/11/04 11:56:13;;;;;;;4.97;2.20;;;;;;;;;;5033803;28;20056;-81
2022/11/04 11:58:45;;;;;;;4.55;2.28;;;;;;;;;;5011545;28;20050;-82
2022/11/04 12:01:55;;;;;;;7.75;2.63;;;;;;;;;;5004970;28;20070;-82
2022/11/04 12:04:21;;;;;;;5.55;2.47;;;;;;;;;;4985626;28;20049;-80
2022/11/04 12:07:22;;;;;;;4.30;2.28;;;;;;;;;;5025451;28;20046;-81
2022/11/04 12:10:15;;;;;;;4.93;2.28;;;;;;;;;;5024331;28;20046;-81
2022/11/04 12:13:15;;;;;;;2.42;1.75;;;;;;;;;;5026470;28;20064;-81
2022/11/04 12:15:58;;;;;;;4.65;1.90;;;;;;;;;;5025884;28;20070;-82
2022/11/04 12:18:27;;;;;;;5.25;2.20;;;;;;;;;;5009250;28;20585;-79
2022/11/04 12:21:15;;;;;;;6.45;1.98;;;;;;;;;;5025400;28;20554;-82
2022/11/04 12:23:49;;;;;;;8.23;2.00;;;;;;;;;;5025734;28;20106;-81
2022/11/04 12:26:49;;;;;;;4.53;1.77;;;;;;;;;;5008255;28;20046;-82
2022/11/04 12:29:39;;;;;;;7.20;2.17;;;;;;;;;;4986584;28;20053;-80
2022/11/04 12:32:06;;;;;;;5.40;2.50;;;;;;;;;;5000669;28;20076;-81
2022/11/04 12:34:35;;;;;;;7.13;2.10;;;;;;;;;;5023472;28;20349;-81
2022/11/04 12:37:03;;;;;;;4.40;2.00;;;;;;;;;;5025310;28;20045;-81
2022/11/04 12:39:32;;;;;;;4.97;2.10;;;;;;;;;;5006724;28;20045;-81
2022/11/04 12:42:05;;;;;;;7.70;2.10;;;;;;;;;;5023271;28;20046;-81
2022/11/04 12:45:01;;;;;;;3.90;2.13;;;;;;;;;;5022737;28;20049;-81
2022/11/04 12:47:31;;;;;;;6.60;1.88;;;;;;;;;;5006248;28;20045;-81
2022/11/04 12:50:17;;;;;;;3.55;1.90;;;;;;;;;;5022963;28;20059;-81
2022/11/04 12:52:43;;;;;;;3.67;2.20;;;;;;;;;;5023937;28;20117;-81
2022/11/04 12:55:22;;;;;;;5.20;1.92;;;;;;;;;;5007122;28;20049;-80
2022/11/04 12:57:49;;;;;;;5.82;2.00;;;;;;;;;;5016237;28;20101;-80
2022/11/04 13:00:19;;;;;;;3.92;1.95;;;;;;;;;;5019651;28;20561;-80
2022/11/04 13:03:10;;;;;;;4.60;1.70;;;;;;;;;;5013043;28;20057;-80
2022/11/04 13:05:37;;;;;;;4.15;1.80;;;;;;;;;;5011507;28;20095;-80
2022/11/04 13:08:09;;;;;;;5.97;2.00;;;;;;;;;;5017079;28;20052;-79
2022/11/04 13:10:39;;;;;;;3.30;1.65;;;;;;;;;;4998674;28;20165;-78
2022/11/04 13:13:07;;;;;;;5.20;1.98;;;;;;;;;;4998809;28;20088;-79
2022/11/04 13:15:42;;;;;;;5.38;2.28;;;;;;;;;;5021152;28;20080;-80
2022/11/04 13:18:12;;;;;;;4.43;2.00;;;;;;;;;;5025678;28;20124;-77
2022/11/04 13:20:51;;;;;;;3.97;1.70;;;;;;;;;;5030263;28;20065;-79
2022/11/04 13:23:41;;;;;;;4.30;1.80;;;;;;;;;;5033876;28;20076;-79
2022/11/04 13:26:13;;;;;;;6.55;2.33;;;;;;;;;;5014964;28;20046;-80
2022/11/04 13:28:40;;;;;;;5.78;2.17;;;;;;;;;;5022535;28;20068;-81
2022/11/04 13:31:11;;;;;;;4.43;1.80;;;;;;;;;;5020068;28;20069;-80
2022/11/04 13:33:46;;;;;;;3.58;1.73;;;;;;;;;;5003030;28;20054;-79
2022/11/04 13:36:15;;;;;;;;;;;;;;;;;;4998360;28;20052;-80
2022/11/04 13:38:44;;;;;;;4.85;1.88;;;;;;;;;;5022296;28;19985;-82
2022/11/04 13:41:19;;;;;;;3.38;1.70;;;;;;;;;;5021317;28;20080;-81
2022/11/04 13:43:54;;;;;;;5.07;1.77;;;;;;;;;;5018417;28;20049;-80
2022/11/04 13:46:22;;;;;;;6.22;2.22;;;;;;;;;;5018105;28;20117;-81
2022/11/04 13:48:54;;;;;;;2.75;1.58;;;;;;;;;;5013636;28;20096;-81
2022/11/04 13:51:21;;;;;;;5.47;1.88;;;;;;;;;;5014139;28;20048;-80
2022/11/04 13:53:48;;;;;;;5.72;1.67;;;;;;;;;;5016147;28;20053;-82
2022/11/04 13:56:26;;;;;;;3.72;1.75;;;;;;;;;;5020131;28;20042;-82
2022/11/04 13:59:19;;;;;;;8.37;2.00;;;;;;;;;;5023360;28;20073;-82
2022/11/04 14:01:46;;;;;;;3.00;1.60;;;;;;;;;;5019965;28;20042;-80
2022/11/04 14:04:14;;;;;;;5.68;1.60;;;;;;;;;;5023030;28;20681;-77
2022/11/04 14:06:56;;;;;;;4.50;1.60;;;;;;;;;;5021681;28;20173;-80
2022/11/04 14:09:22;;;;;;;5.65;1.92;;;;;;;;;;5019085;28;20494;-79
2022/11/04 14:12:07;;;;;;;6.78;2.10;;;;;;;;;;4998505;28;20045;-80
2022/11/04 14:14:34;;;;;;;4.45;1.80;;;;;;;;;;5014860;28;20061;-80
2022/11/04 14:17:03;;;;;;;4.65;1.67;;;;;;;;;;5017544;28;20074;-80
2022/11/04 14:19:46;;;;;;;6.13;1.88;;;;;;;;;;5015793;28;20044;-79
2022/11/04 14:22:14;;;;;;;4.10;1.63;;;;;;;;;;5014318;28;20068;-78
2022/11/04 14:24:40;;;;;;;6.55;1.75;;;;;;;;;;5017862;28;20056;-80
2022/11/04 14:27:22;;;;;;;5.63;2.10;;;;;;;;;;5002796;28;20105;-82
2022/11/04 14:29:50;;;;;;;3.33;1.95;;;;;;;;;;5003634;28;20041;-79
2022/11/04 14:32:18;;;;;;;7.63;2.30;;;;;;;;;;5019047;28;20122;-81
2022/11/04 14:34:44;;;;;;;9.43;3.30;;;;;;;;;;5002415;28;20077;-78
2022/11/04 14:37:14;;;;;;;5.38;2.38;;;;;;;;;;5002220;28;20070;-79
2022/11/04 14:39:41;;;;;;;6.07;2.38;;;;;;;;;;4992997;28;20042;-79
2022/11/04 14:42:11;;;;;;;10.45;2.88;;;;;;;;;;5013144;28;20075;-80
2022/11/04 14:44:37;;;;;;;5.60;1.90;;;;;;;;;;5010883;28;20480;-79
2022/11/04 14:47:13;;;;;;;6.78;2.53;;;;;;;;;;5020806;28;20113;-80
2022/11/04 14:49:43;;;;;;;6.95;2.40;;;;;;;;;;5004353;28;20064;-78
2022/11/04 14:52:15;;;;;;;4.80;2.58;;;;;;;;;;5021459;28;20081;-79
2022/11/04 14:54:42;;;;;;;7.80;2.70;;;;;;;;;;5019533;28;20060;-80
2022/11/04 14:57:16;;;;;;;7.50;2.40;;;;;;;;;;5009775;28;20061;-80
2022/11/04 14:59:43;;;;;;;7.93;2.80;;;;;;;;;;5025499;28;20046;-78
2022/11/04 15:02:15;;;;;;;5.97;2.38;;;;;;;;;;5024746;28;20105;-80
2022/11/04 15:04:56;;;;;;;6.93;2.33;;;;;;;;;;5006698;28;20046;-80
2022/11/04 15:07:36;;;;;;;9.30;2.83;;;;;;;;;;5024986;28;20045;-80
2022/11/04 15:10:23;;;;;;;6.90;2.40;;;;;;;;;;5012918;28;20060;-80
2022/11/04 15:12:50;;;;;;;9.52;2.83;;;;;;;;;;5015263;28;20542;-79
2022/11/04 15:15:23;;;;;;;5.55;2.33;;;;;;;;;;5017650;28;20053;-79
2022/11/04 15:17:50;;;;;;;10.80;2.70;;;;;;;;;;5021786;28;20429;-80
2022/11/04 15:20:22;;;;;;;11.55;2.72;;;;;;;;;;5019467;28;20069;-80